Time;durP1;ratioP1;P1;durP2;ratioP2;P2;SDS_P1;SDS_P2;PMS_P1;PMS_P2;Temp;Humidity;BMP_temperature;BMP_pressure;BME280_temperature;BME280_humidity;BME280_pressure;Samples;Min_cycle;Max_cycle;Signal;HPM_P1;HPM_P2
2021/10/05 00:00:12;;;;;;;26.50;13.50;;;;;;;11.94;59.45;99350.20;113380;1195;111120;-72
2021/10/05 00:02:59;;;;;;;27.60;15.10;;;;;;;11.89;59.59;99347.84;113378;1195;97651;-72
2021/10/05 00:05:35;;;;;;;28.80;14.80;;;;;;;11.84;59.62;99346.48;113365;1195;107103;-72
2021/10/05 00:08:03;;;;;;;32.50;16.90;;;;;;;11.80;59.50;99347.66;113370;1195;97638;-71
2021/10/05 00:10:31;;;;;;;29.20;15.60;;;;;;;11.78;59.63;99347.61;113378;1195;97529;-72
2021/10/05 00:12:59;;;;;;;31.30;14.40;;;;;;;11.75;59.61;99345.86;113377;1195;111186;-71
2021/10/05 00:15:27;;;;;;;30.10;14.80;;;;;;;11.72;59.75;99348.04;113422;1194;98785;-72
2021/10/05 00:17:55;;;;;;;33.10;16.60;;;;;;;11.70;59.81;99349.09;113371;1195;108182;-72
2021/10/05 00:20:23;;;;;;;33.70;17.60;;;;;;;11.65;59.77;99358.34;113217;1195;97590;-71
2021/10/05 00:22:55;;;;;;;33.90;16.10;;;;;;;11.59;59.90;99355.55;113451;1195;95520;-71
2021/10/05 00:25:27;;;;;;;31.10;15.00;;;;;;;11.57;59.93;99356.92;113344;1195;111133;-71
2021/10/05 00:27:55;;;;;;;32.80;16.00;;;;;;;11.56;60.01;99351.15;113300;1195;97550;-72
2021/10/05 00:30:27;;;;;;;32.80;16.30;;;;;;;11.56;60.01;99353.66;113181;1196;106674;-74
2021/10/05 00:32:55;;;;;;;35.30;17.00;;;;;;;11.55;60.05;99351.63;113356;1195;97796;-73
2021/10/05 00:35:28;;;;;;;32.40;16.30;;;;;;;11.53;60.18;99352.98;113334;1195;98296;-72
2021/10/05 00:37:59;;;;;;;31.90;16.10;;;;;;;11.50;60.11;99351.05;113168;1196;111720;-73
2021/10/05 00:40:31;;;;;;;;;;;;;;;11.47;60.23;99352.69;113365;1195;95031;-74
2021/10/05 00:42:59;;;;;;;35.30;17.60;;;;;;;11.41;60.34;99355.41;113146;1197;108472;-72
2021/10/05 00:45:26;;;;;;;30.30;16.50;;;;;;;11.37;60.27;99356.05;113350;1195;97661;-72
2021/10/05 00:47:54;;;;;;;35.10;17.80;;;;;;;11.35;60.37;99357.80;113385;1195;97625;-71
2021/10/05 00:50:26;;;;;;;35.50;17.10;;;;;;;11.32;60.39;99357.66;113323;1195;111268;-70
2021/10/05 00:52:59;;;;;;;35.30;17.10;;;;;;;11.29;60.39;99359.83;113330;1187;97657;-70
2021/10/05 00:55:27;;;;;;;30.30;15.90;;;;;;;11.26;60.38;99358.95;113299;1195;107522;-70
2021/10/05 00:57:58;;;;;;;31.60;16.60;;;;;;;11.25;60.53;99354.28;113376;1195;98991;-72
2021/10/05 01:00:27;;;;;;;37.00;17.20;;;;;;;11.22;60.53;99352.14;113339;1195;98999;-65
2021/10/05 01:02:59;;;;;;;33.30;17.20;;;;;;;11.19;60.53;99346.11;113210;1195;112781;-67
2021/10/05 01:05:28;;;;;;;33.70;17.00;;;;;;;11.17;60.62;99341.16;113382;1193;99613;-71
2021/10/05 01:07:56;;;;;;;33.20;17.50;;;;;;;11.16;60.55;99336.06;113258;1195;107510;-73
2021/10/05 01:10:28;;;;;;;29.60;15.70;;;;;;;11.14;60.59;99337.79;113317;1195;98967;-70
2021/10/05 01:13:00;;;;;;;33.00;16.90;;;;;;;11.11;60.61;99338.56;113203;1196;99008;-72
2021/10/05 01:15:29;;;;;;;33.90;17.00;;;;;;;11.09;60.72;99343.13;113340;1195;112562;-70
2021/10/05 01:18:00;;;;;;;32.40;15.70;;;;;;;11.04;60.73;99341.33;113242;1195;98929;-70
2021/10/05 01:20:28;;;;;;;32.20;15.40;;;;;;;11.00;60.75;99341.80;113256;1195;107561;-70
2021/10/05 01:22:56;;;;;;;31.50;16.70;;;;;;;10.97;60.83;99335.57;113359;1194;98906;-71
2021/10/05 01:25:28;;;;;;;32.00;16.50;;;;;;;10.95;60.85;99334.85;113354;1195;97103;-70
2021/10/05 01:27:56;;;;;;;30.80;16.10;;;;;;;10.93;60.95;99330.73;113178;1195;112104;-71
2021/10/05 01:30:24;;;;;;;35.00;15.90;;;;;;;10.92;61.07;99329.23;113392;1195;96448;-71
2021/10/05 01:32:52;;;;;;;34.40;17.10;;;;;;;10.90;61.07;99327.76;113368;1195;107536;-71
2021/10/05 01:35:24;;;;;;;34.80;16.40;;;;;;;10.88;61.18;99327.40;113338;1195;99584;-71
2021/10/05 01:37:52;;;;;;;31.20;16.30;;;;;;;10.85;61.17;99329.71;113322;1195;99014;-72
2021/10/05 01:40:19;;;;;;;30.40;15.60;;;;;;;10.82;61.15;99325.29;113356;1195;112507;-71
2021/10/05 01:42:47;;;;;;;31.20;16.10;;;;;;;10.80;61.20;99324.73;113381;1195;98905;-72
2021/10/05 01:45:15;;;;;;;29.00;15.70;;;;;;;10.79;61.26;99320.89;113242;1195;107591;-72
2021/10/05 01:47:43;;;;;;;31.00;15.70;;;;;;;10.78;61.21;99325.36;113362;1195;98942;-71
2021/10/05 01:50:11;;;;;;;30.90;15.30;;;;;;;10.77;61.29;99323.71;113367;1195;98918;-71
2021/10/05 01:52:43;;;;;;;32.70;16.80;;;;;;;10.73;61.38;99322.19;113354;1195;112268;-72
2021/10/05 01:55:10;;;;;;;28.80;15.10;;;;;;;10.69;61.32;99319.99;113386;1195;98917;-71
2021/10/05 01:57:42;;;;;;;32.40;15.90;;;;;;;10.66;61.50;99316.81;113352;1195;108500;-70
2021/10/05 02:00:10;;;;;;;29.80;15.90;;;;;;;10.63;61.48;99317.02;113336;1187;98942;-70
2021/10/05 02:02:42;;;;;;;28.50;15.00;;;;;;;10.62;61.49;99319.23;113193;1195;98911;-70
2021/10/05 02:05:10;;;;;;;32.40;16.30;;;;;;;10.61;61.56;99320.02;113379;1195;112482;-71
2021/10/05 02:07:38;;;;;;;30.00;15.10;;;;;;;10.60;61.62;99321.30;113339;1195;98249;-72
2021/10/05 02:10:11;;;;;;;30.10;16.30;;;;;;;10.59;61.59;99317.98;113176;1195;107495;-70
2021/10/05 02:12:43;;;;;;;31.80;15.80;;;;;;;10.58;61.47;99314.02;113279;1195;99107;-71
2021/10/05 02:15:11;;;;;;;35.80;16.60;;;;;;;10.55;61.40;99317.02;113346;1195;98985;-70
2021/10/05 02:17:38;;;;;;;33.10;17.00;;;;;;;10.51;61.36;99311.65;113365;1196;112506;-69
2021/10/05 02:20:09;;;;;;;30.90;15.80;;;;;;;10.45;61.48;99308.47;113355;1195;96735;-70
2021/10/05 02:22:37;;;;;;;31.80;16.40;;;;;;;10.41;61.46;99309.61;113366;1195;107630;-70
2021/10/05 02:25:08;;;;;;;35.30;16.80;;;;;;;10.37;61.59;99313.77;113342;1195;99170;-70
2021/10/05 02:27:36;;;;;;;31.30;17.30;;;;;;;10.36;61.66;99312.43;113334;1195;98908;-68
2021/10/05 02:30:08;;;;;;;30.60;16.60;;;;;;;10.36;61.91;99315.98;113290;1195;112644;-70
2021/10/05 02:32:36;;;;;;;35.90;16.20;;;;;;;10.37;62.06;99313.41;113330;1194;96391;-67
2021/10/05 02:35:08;;;;;;;30.40;15.60;;;;;;;10.38;62.02;99315.34;113299;1195;107500;-70
2021/10/05 02:37:39;;;;;;;32.30;15.30;;;;;;;10.39;62.09;99316.71;113262;1195;98914;-68
2021/10/05 02:40:11;;;;;;;30.70;15.70;;;;;;;10.40;62.21;99320.35;113291;1195;98945;-71
2021/10/05 02:42:39;;;;;;;32.00;17.00;;;;;;;10.41;62.09;99326.10;113338;1195;112567;-68
2021/10/05 02:45:12;;;;;;;34.70;16.40;;;;;;;10.42;62.22;99329.24;113236;1195;98985;-69
2021/10/05 02:47:40;;;;;;;32.70;16.80;;;;;;;10.42;62.30;99330.27;113339;1195;107526;-67
2021/10/05 02:50:08;;;;;;;33.40;16.20;;;;;;;10.42;62.42;99329.77;113310;1195;99656;-71
2021/10/05 02:52:36;;;;;;;32.40;16.30;;;;;;;10.43;62.49;99331.34;113385;1193;98876;-70
2021/10/05 02:55:05;;;;;;;32.40;15.80;;;;;;;10.42;62.53;99332.25;113385;1193;112676;-70
2021/10/05 02:57:32;;;;;;;33.50;16.00;;;;;;;10.42;62.27;99332.08;113371;1193;98951;-69
2021/10/05 03:00:00;;;;;;;29.80;16.30;;;;;;;10.39;62.31;99331.23;113416;1193;107567;-70
2021/10/05 03:02:29;;;;;;;35.00;17.60;;;;;;;10.35;62.38;99329.67;113421;1193;98925;-69
2021/10/05 03:04:57;;;;;;;31.40;16.20;;;;;;;10.33;62.65;99325.94;113434;1193;99049;-70
2021/10/05 03:07:25;;;;;;;35.20;17.00;;;;;;;10.33;62.54;99322.36;113272;1193;112560;-70
2021/10/05 03:09:53;;;;;;;34.60;17.70;;;;;;;10.34;62.57;99316.82;113298;1195;99005;-70
2021/10/05 03:12:20;;;;;;;35.40;17.70;;;;;;;10.34;62.71;99321.96;113131;1195;107521;-72
2021/10/05 03:14:48;;;;;;;37.30;16.90;;;;;;;10.33;62.90;99321.30;113313;1195;96371;-75
2021/10/05 03:17:16;;;;;;;32.60;16.60;;;;;;;10.34;62.69;99322.17;113337;1195;98988;-70
2021/10/05 03:19:44;;;;;;;32.00;17.40;;;;;;;10.30;62.61;99317.61;113276;1195;112493;-71
2021/10/05 03:22:15;;;;;;;33.60;17.70;;;;;;;10.26;62.64;99321.63;113295;1195;98901;-71
2021/10/05 03:24:47;;;;;;;35.10;17.50;;;;;;;10.22;62.72;99318.86;113333;1195;107534;-69
2021/10/05 03:27:19;;;;;;;32.30;16.80;;;;;;;10.21;62.65;99317.88;113197;1195;98932;-70
2021/10/05 03:29:47;;;;;;;32.30;17.80;;;;;;;10.18;62.68;99314.55;113334;1195;96437;-70
2021/10/05 03:32:14;;;;;;;36.30;18.50;;;;;;;10.14;62.63;99313.39;113218;1196;111529;-70
2021/10/05 03:34:46;;;;;;;36.30;19.40;;;;;;;10.08;62.68;99313.42;113208;1196;96482;-70
2021/10/05 03:37:14;;;;;;;34.90;18.00;;;;;;;10.04;62.84;99311.53;113215;1195;107505;-72
2021/10/05 03:39:42;;;;;;;35.80;19.50;;;;;;;10.00;62.73;99317.98;113322;1195;99010;-71
2021/10/05 03:42:10;;;;;;;36.30;17.00;;;;;;;9.96;62.85;99315.83;113205;1195;99753;-69
2021/10/05 03:44:38;;;;;;;32.80;16.70;;;;;;;9.92;62.95;99319.06;113302;1195;112596;-70
2021/10/05 03:47:07;;;;;;;33.00;17.60;;;;;;;9.91;63.02;99319.35;113282;1195;96863;-70
2021/10/05 03:49:35;;;;;;;32.60;17.60;;;;;;;9.89;63.21;99320.84;113350;1195;107279;-69
2021/10/05 03:52:06;;;;;;;34.10;18.00;;;;;;;9.90;63.36;99319.58;113248;1195;99034;-71
2021/10/05 03:54:34;;;;;;;36.20;17.90;;;;;;;9.92;63.44;99320.87;113298;1195;98974;-70
2021/10/05 03:57:02;;;;;;;34.70;17.50;;;;;;;9.93;63.53;99317.25;113304;1195;112385;-70
2021/10/05 03:59:30;;;;;;;32.40;17.40;;;;;;;9.94;63.53;99315.91;113294;1195;98986;-71
2021/10/05 04:01:58;;;;;;;33.80;17.50;;;;;;;9.96;63.70;99310.50;113295;1193;107513;-70
2021/10/05 04:04:29;;;;;;;34.20;18.20;;;;;;;9.97;63.73;99314.46;113393;1193;98905;-69
2021/10/05 04:06:56;;;;;;;33.70;18.30;;;;;;;9.98;63.66;99309.11;113093;1195;98936;-70
2021/10/05 04:09:24;;;;;;;33.40;18.10;;;;;;;10.00;63.76;99307.40;113280;1193;112491;-70
2021/10/05 04:11:56;;;;;;;35.70;17.40;;;;;;;10.02;63.74;99306.00;113082;1195;98985;-70
2021/10/05 04:14:23;;;;;;;34.30;19.10;;;;;;;10.05;63.83;99305.30;113183;1195;107455;-71
2021/10/05 04:16:51;;;;;;;34.70;17.80;;;;;;;10.07;63.80;99302.67;113402;1193;96475;-70
2021/10/05 04:19:19;;;;;;;33.10;18.10;;;;;;;10.08;63.81;99305.42;113281;1194;96451;-69
2021/10/05 04:21:47;;;;;;;33.60;18.00;;;;;;;10.08;63.84;99301.17;113402;1193;112507;-69
2021/10/05 04:24:15;;;;;;;32.60;17.90;;;;;;;10.09;63.78;99302.52;113420;1193;97426;-70
2021/10/05 04:26:43;;;;;;;34.30;18.00;;;;;;;10.09;63.78;99298.45;113441;1193;107522;-71
2021/10/05 04:29:10;;;;;;;33.90;17.30;;;;;;;10.09;63.88;99303.23;113288;1195;99002;-70
2021/10/05 04:31:41;;;;;;;35.10;18.00;;;;;;;10.08;63.81;99306.31;113273;1195;96731;-70
2021/10/05 04:34:16;;;;;;;35.30;18.00;;;;;;;10.04;63.72;99304.45;113382;1193;112502;-69
2021/10/05 04:36:44;;;;;;;34.60;18.00;;;;;;;10.01;63.82;99303.81;113402;1193;99069;-70
2021/10/05 04:39:12;;;;;;;37.90;18.40;;;;;;;9.99;63.94;99302.09;113228;1195;108297;-70
2021/10/05 04:41:44;;;;;;;33.90;17.70;;;;;;;10.00;63.92;99307.38;113212;1195;99072;-71
2021/10/05 04:44:11;;;;;;;35.70;17.60;;;;;;;9.96;64.00;99301.23;113266;1193;99000;-69
2021/10/05 04:46:39;;;;;;;32.10;18.80;;;;;;;9.94;64.10;99301.57;113279;1193;112555;-69
2021/10/05 04:49:11;;;;;;;37.60;18.50;;;;;;;9.94;64.11;99301.17;113288;1193;99137;-69
2021/10/05 04:51:39;;;;;;;39.50;17.90;;;;;;;9.95;64.09;99304.16;113365;1193;107853;-69
2021/10/05 04:54:11;;;;;;;36.30;18.60;;;;;;;9.95;64.18;99299.55;113268;1195;98304;-69
2021/10/05 04:56:43;;;;;;;34.50;16.90;;;;;;;9.95;64.18;99296.58;113307;1193;98948;-70
2021/10/05 04:59:13;;;;;;;34.40;17.50;;;;;;;9.96;64.38;99294.36;113429;1193;112574;-72
2021/10/05 05:01:41;;;;;;;35.00;17.90;;;;;;;9.98;64.44;99292.63;113311;1193;98990;-72
2021/10/05 05:04:19;;;;;;;34.40;17.10;;;;;;;10.02;64.52;99294.70;113259;1195;107525;-73
2021/10/05 05:06:47;;;;;;;35.10;18.80;;;;;;;10.05;64.41;99293.60;113160;1195;99456;-72
2021/10/05 05:09:15;;;;;;;33.60;18.40;;;;;;;10.07;64.31;99295.80;113235;1193;98973;-71
2021/10/05 05:11:43;;;;;;;34.60;17.80;;;;;;;10.06;64.40;99295.61;113338;1193;112496;-72
2021/10/05 05:14:12;;;;;;;36.50;17.40;;;;;;;10.06;64.54;99292.06;113420;1193;98885;-71
2021/10/05 05:16:44;;;;;;;32.90;18.30;;;;;;;10.09;64.64;99295.97;113377;1193;107536;-71
2021/10/05 05:19:12;;;;;;;37.70;19.60;;;;;;;10.13;64.79;99292.36;113121;1193;98996;-71
2021/10/05 05:21:40;;;;;;;36.70;18.10;;;;;;;10.18;64.92;99297.55;113283;1193;99000;-72
2021/10/05 05:24:08;;;;;;;35.40;18.50;;;;;;;10.22;64.99;99301.14;113268;1195;112495;-72
2021/10/05 05:26:36;;;;;;;47.40;28.00;;;;;;;10.28;65.03;99306.59;113333;1193;97833;-70
2021/10/05 05:29:04;;;;;;;38.80;20.70;;;;;;;10.34;65.09;99304.64;113179;1196;107485;-70
2021/10/05 05:31:32;;;;;;;32.80;17.60;;;;;;;10.39;65.20;99306.23;113289;1195;99009;-71
2021/10/05 05:34:01;;;;;;;33.60;17.00;;;;;;;10.43;65.09;99310.72;113199;1194;99017;-72
2021/10/05 05:36:29;;;;;;;32.60;17.60;;;;;;;10.48;65.21;99311.98;113169;1195;112225;-73
2021/10/05 05:39:04;;;;;;;35.90;18.00;;;;;;;10.54;65.22;99310.04;113411;1194;98990;-72
2021/10/05 05:41:32;;;;;;;34.90;17.30;;;;;;;10.59;65.19;99305.98;113342;1193;106529;-72
2021/10/05 05:44:00;;;;;;;34.40;18.10;;;;;;;10.64;65.27;99309.15;113180;1195;99063;-72
2021/10/05 05:46:28;;;;;;;38.50;18.50;;;;;;;10.69;65.25;99305.80;113153;1193;98926;-70
2021/10/05 05:48:57;;;;;;;32.20;17.20;;;;;;;10.74;65.28;99302.48;113121;1195;112491;-70
2021/10/05 05:51:25;;;;;;;34.50;18.40;;;;;;;10.77;65.35;99307.21;113061;1195;97665;-70
2021/10/05 05:53:53;;;;;;;34.20;18.20;;;;;;;10.80;65.28;99311.61;113184;1193;107515;-74
2021/10/05 05:56:21;;;;;;;35.30;17.00;;;;;;;10.83;65.38;99316.88;113179;1193;97633;-74
2021/10/05 05:58:52;;;;;;;33.40;17.20;;;;;;;10.85;65.35;99321.18;112836;1195;98986;-71
2021/10/05 06:01:21;;;;;;;39.20;18.00;;;;;;;10.87;65.29;99324.39;113134;1195;112550;-72
2021/10/05 06:03:50;;;;;;;32.50;17.60;;;;;;;10.89;65.36;99327.83;113049;1187;98917;-71
2021/10/05 06:06:18;;;;;;;35.20;17.60;;;;;;;10.91;65.29;99328.78;112974;1193;107491;-72
2021/10/05 06:08:48;;;;;;;32.60;17.50;;;;;;;10.92;65.32;99327.81;113246;1193;99032;-72
2021/10/05 06:11:18;;;;;;;37.80;16.50;;;;;;;10.95;65.30;99325.67;113152;1195;98930;-70
2021/10/05 06:13:47;;;;;;;32.20;16.80;;;;;;;10.96;65.37;99325.39;113329;1193;112508;-72
2021/10/05 06:16:17;;;;;;;34.30;16.80;;;;;;;10.98;65.39;99328.79;113252;1193;99076;-73
2021/10/05 06:18:45;;;;;;;32.40;17.50;;;;;;;11.01;65.45;99329.10;113397;1193;107642;-72
2021/10/05 06:21:13;;;;;;;31.70;16.10;;;;;;;11.04;65.50;99329.27;113179;1193;98918;-73
2021/10/05 06:23:41;;;;;;;34.60;16.90;;;;;;;11.06;65.45;99331.42;113486;1193;97445;-70
2021/10/05 06:26:09;;;;;;;31.70;16.60;;;;;;;11.09;65.50;99331.77;113322;1193;112674;-73
2021/10/05 06:28:38;;;;;;;33.70;17.20;;;;;;;11.12;65.59;99333.84;113354;1193;98994;-72
2021/10/05 06:31:06;;;;;;;33.50;17.00;;;;;;;11.16;65.62;99335.19;113154;1193;107479;-71
2021/10/05 06:33:34;;;;;;;33.70;17.40;;;;;;;11.21;65.65;99342.15;113277;1193;99044;-75
2021/10/05 06:36:03;;;;;;;36.30;16.60;;;;;;;11.24;65.74;99340.09;113283;1194;98992;-74
2021/10/05 06:38:30;;;;;;;30.20;15.80;;;;;;;11.28;65.70;99335.93;113265;1193;111661;-71
2021/10/05 06:40:59;;;;;;;51.90;29.10;;;;;;;11.33;65.82;99335.05;113364;1193;99605;-72
2021/10/05 06:43:27;;;;;;;48.40;28.00;;;;;;;11.39;65.87;99330.91;113279;1194;107552;-71
2021/10/05 06:45:55;;;;;;;34.20;17.90;;;;;;;11.45;65.87;99330.09;113272;1193;98285;-72
2021/10/05 06:48:24;;;;;;;32.60;16.00;;;;;;;11.52;65.91;99326.77;113348;1181;97403;-70
2021/10/05 06:50:52;;;;;;;32.90;16.10;;;;;;;11.59;65.94;99320.59;113295;1193;111440;-73
2021/10/05 06:53:19;;;;;;;33.00;16.40;;;;;;;11.67;65.95;99317.90;113343;1193;99448;-70
2021/10/05 06:55:47;;;;;;;29.40;15.90;;;;;;;11.75;66.02;99318.70;113302;1194;107576;-73
2021/10/05 06:58:17;;;;;;;29.10;15.40;;;;;;;11.83;65.98;99319.34;113308;1193;96456;-73
2021/10/05 07:00:45;;;;;;;31.70;14.30;;;;;;;11.92;65.90;99320.49;113210;1195;98927;-74
2021/10/05 07:03:13;;;;;;;30.50;14.20;;;;;;;12.00;66.09;99323.25;113234;1193;112382;-73
2021/10/05 07:05:41;;;;;;;27.70;14.30;;;;;;;12.08;66.00;99329.30;113241;1194;98975;-74
2021/10/05 07:08:11;;;;;;;27.10;14.00;;;;;;;12.14;66.01;99333.27;113282;1193;107234;-73
2021/10/05 07:10:39;;;;;;;30.40;14.80;;;;;;;12.21;65.99;99336.86;113284;1193;98924;-75
2021/10/05 07:13:07;;;;;;;27.50;13.50;;;;;;;12.27;66.02;99333.91;113212;1193;97181;-74
2021/10/05 07:15:37;;;;;;;30.90;14.10;;;;;;;12.34;66.17;99335.52;113241;1193;111185;-73
2021/10/05 07:18:05;;;;;;;28.50;14.10;;;;;;;12.41;66.12;99335.93;113298;1193;99008;-76
2021/10/05 07:20:33;;;;;;;29.50;14.20;;;;;;;12.47;66.06;99334.02;113191;1195;107688;-72
2021/10/05 07:23:00;;;;;;;27.10;13.80;;;;;;;12.55;66.08;99331.48;113163;1195;98935;-74
2021/10/05 07:25:30;;;;;;;30.50;15.00;;;;;;;12.62;66.12;99331.45;113214;1195;98932;-74
2021/10/05 07:27:59;;;;;;;32.00;14.80;;;;;;;12.70;66.18;99334.25;113172;1195;113920;-71
2021/10/05 07:30:28;;;;;;;27.80;13.50;;;;;;;12.76;66.14;99331.63;112767;1196;98932;-72
2021/10/05 07:33:06;;;;;;;29.30;13.90;;;;;;;12.85;66.16;99330.44;113201;1195;107316;-70
2021/10/05 07:35:36;;;;;;;26.60;13.10;;;;;;;12.94;66.13;99330.78;113317;1193;99008;-71
2021/10/05 07:38:04;;;;;;;29.80;13.80;;;;;;;13.02;66.20;99327.52;113234;1195;97193;-72
2021/10/05 07:40:34;;;;;;;29.80;13.50;;;;;;;13.09;66.26;99328.16;113350;1195;112669;-72
2021/10/05 16:00:51;;;;;;;23.60;11.70;;;;;;;18.19;54.08;99217.29;113319;1193;108870;-71
2021/10/05 16:03:19;;;;;;;25.20;11.80;;;;;;;18.11;54.10;99220.46;113476;1196;96475;-72
2021/10/05 16:05:48;;;;;;;28.30;10.70;;;;;;;18.07;54.15;99218.55;113203;1194;98916;-74
2021/10/05 16:08:17;;;;;;;25.60;11.90;;;;;;;18.04;54.11;99218.89;113167;1195;112533;-71
2021/10/05 16:10:44;;;;;;;25.90;12.10;;;;;;;18.01;54.33;99223.84;113051;1195;96416;-72
2021/10/05 16:13:12;;;;;;;26.50;12.60;;;;;;;17.98;54.15;99225.83;113060;1195;107538;-72
2021/10/05 16:15:41;;;;;;;26.50;11.50;;;;;;;17.91;54.19;99223.30;113114;1195;98975;-72
2021/10/05 16:18:10;;;;;;;24.40;11.90;;;;;;;17.83;54.42;99224.81;113092;1195;98918;-72
2021/10/05 16:20:38;;;;;;;27.40;11.30;;;;;;;17.80;54.36;99220.52;113132;1195;112467;-68
2021/10/05 16:23:06;;;;;;;23.90;11.30;;;;;;;17.76;54.49;99223.09;113084;1196;98905;-70
2021/10/05 16:25:34;;;;;;;29.20;13.00;;;;;;;17.70;54.55;99224.66;113105;1196;106782;-71
2021/10/05 16:28:03;;;;;;;29.30;12.90;;;;;;;17.67;54.62;99219.26;113044;1195;98928;-73
2021/10/05 16:30:30;;;;;;;31.40;13.30;;;;;;;17.63;54.75;99217.30;113103;1196;97106;-72
2021/10/05 16:32:58;;;;;;;27.20;13.60;;;;;;;17.61;54.82;99217.36;113032;1195;112322;-71
2021/10/05 16:35:27;;;;;;;28.60;12.90;;;;;;;17.55;54.96;99215.85;113074;1196;99049;-71
2021/10/05 16:37:55;;;;;;;27.60;12.50;;;;;;;17.49;54.97;99217.84;113087;1194;107531;-72
2021/10/05 16:40:23;;;;;;;23.90;11.40;;;;;;;17.44;55.01;99221.59;112874;1195;97443;-72
2021/10/05 16:42:50;;;;;;;26.30;12.20;;;;;;;17.40;55.07;99219.79;112591;1195;98889;-72
2021/10/05 16:45:19;;;;;;;26.00;11.40;;;;;;;17.38;55.14;99219.65;113055;1187;112586;-71
2021/10/05 16:47:48;;;;;;;24.50;11.70;;;;;;;17.37;55.22;99222.80;112929;1195;99045;-72
2021/10/05 16:50:22;;;;;;;33.40;12.20;;;;;;;17.34;55.26;99226.82;114164;1195;107532;-73
2021/10/05 16:52:50;;;;;;;30.00;12.00;;;;;;;17.28;55.32;99221.09;113093;1196;98908;-72
2021/10/05 16:55:19;;;;;;;29.80;12.80;;;;;;;17.24;55.46;99220.23;113165;1195;98954;-72
2021/10/05 16:57:47;;;;;;;36.20;14.10;;;;;;;17.21;55.41;99224.35;113172;1195;112130;-73
2021/10/05 17:00:16;;;;;;;29.60;13.20;;;;;;;17.16;55.49;99224.48;113215;1195;98931;-75
2021/10/05 17:02:45;;;;;;;30.50;13.30;;;;;;;17.10;55.62;99222.36;113191;1196;107481;-74
2021/10/05 17:05:13;;;;;;;32.70;13.90;;;;;;;17.04;55.63;99225.79;113195;1195;98939;-75
2021/10/05 17:07:41;;;;;;;31.70;13.30;;;;;;;17.00;55.65;99227.45;113150;1195;99001;-74
2021/10/05 17:10:09;;;;;;;26.80;12.90;;;;;;;16.99;55.82;99228.29;113155;1196;112255;-77
2021/10/05 17:12:38;;;;;;;27.00;13.50;;;;;;;16.97;55.89;99228.61;113102;1195;98935;-76
2021/10/05 17:15:09;;;;;;;25.40;12.40;;;;;;;16.95;55.79;99230.86;112981;1195;108142;-76
2021/10/05 17:17:39;;;;;;;28.60;12.40;;;;;;;16.93;55.83;99227.49;113020;1195;98963;-76
2021/10/05 17:20:09;;;;;;;25.60;11.80;;;;;;;16.91;55.87;99223.75;113133;1195;96414;-77
2021/10/05 17:22:40;;;;;;;27.20;11.30;;;;;;;16.88;56.04;99219.61;113177;1195;112617;-72
2021/10/05 17:25:11;;;;;;;27.40;12.10;;;;;;;16.83;56.04;99220.27;112966;1196;99132;-73
2021/10/05 17:27:41;;;;;;;25.80;11.90;;;;;;;16.77;55.99;99221.96;112757;1196;107663;-73
2021/10/05 17:30:10;;;;;;;24.20;11.20;;;;;;;16.70;56.01;99223.79;113253;1195;98991;-75
2021/10/05 17:32:38;;;;;;;26.90;11.30;;;;;;;16.63;56.16;99220.36;113054;1194;98991;-77
2021/10/05 17:35:08;;;;;;;30.00;11.90;;;;;;;16.59;56.16;99224.34;113040;1195;112542;-72
2021/10/05 17:37:38;;;;;;;26.40;11.50;;;;;;;16.52;56.12;99219.91;112889;1196;99597;-71
2021/10/05 17:40:07;;;;;;;33.30;12.20;;;;;;;16.47;56.22;99218.77;114061;1195;108673;-71
2021/10/05 17:42:36;;;;;;;26.10;11.60;;;;;;;16.44;56.25;99221.80;113175;1195;99068;-70
2021/10/05 17:45:08;;;;;;;25.20;11.30;;;;;;;16.42;56.34;99215.88;113191;1195;97443;-70
2021/10/05 17:47:39;;;;;;;31.10;12.30;;;;;;;16.41;56.35;99216.23;113170;1196;112545;-71
2021/10/05 17:50:12;;;;;;;28.30;11.20;;;;;;;16.38;56.45;99212.20;113123;1195;98905;-71
2021/10/05 17:52:41;;;;;;;25.30;10.60;;;;;;;16.30;56.35;99213.66;112855;1196;107540;-71
2021/10/05 17:55:12;;;;;;;27.20;11.30;;;;;;;16.24;56.38;99216.53;112932;1196;98899;-71
2021/10/05 17:57:41;;;;;;;23.70;10.90;;;;;;;16.17;56.50;99218.41;113182;1195;96305;-71
2021/10/05 18:00:11;;;;;;;28.50;11.00;;;;;;;16.11;56.72;99223.61;113140;1195;112498;-71
2021/10/05 18:02:40;;;;;;;28.60;11.10;;;;;;;16.01;56.67;99227.23;113172;1195;96408;-73
2021/10/05 18:05:11;;;;;;;25.50;11.30;;;;;;;15.90;56.80;99225.74;113171;1195;107592;-73
2021/10/05 18:07:39;;;;;;;33.60;12.70;;;;;;;15.83;57.22;99223.33;113065;1195;97288;-71
2021/10/05 18:10:10;;;;;;;28.70;12.60;;;;;;;15.73;57.32;99219.16;113978;1195;97677;-70
2021/10/05 18:12:40;;;;;;;31.30;14.10;;;;;;;15.66;57.34;99216.77;112860;1196;112660;-70
2021/10/05 18:15:10;;;;;;;27.10;11.70;;;;;;;15.59;57.34;99212.92;113282;1195;99631;-69
2021/10/05 18:17:39;;;;;;;27.40;11.40;;;;;;;15.55;57.31;99213.83;113391;1195;107562;-70
2021/10/05 18:20:09;;;;;;;25.10;11.50;;;;;;;15.53;57.50;99217.61;114584;1195;97176;-71
2021/10/05 18:22:39;;;;;;;24.20;10.90;;;;;;;15.49;57.49;99216.56;113764;1195;99018;-69
2021/10/05 18:25:19;;;;;;;29.30;11.10;;;;;;;15.47;57.60;99221.40;113138;1195;113261;-70
2021/10/05 18:27:49;;;;;;;25.90;11.90;;;;;;;15.44;57.79;99226.84;113291;1195;99086;-70
2021/10/05 18:30:18;;;;;;;25.50;11.10;;;;;;;15.40;57.61;99223.30;113345;1194;107588;-72
2021/10/05 18:32:49;;;;;;;26.70;11.10;;;;;;;15.36;57.58;99221.98;112875;1196;98903;-73
2021/10/05 18:35:18;;;;;;;26.40;11.80;;;;;;;15.34;57.70;99224.51;113290;1195;98916;-71
2021/10/05 18:37:47;;;;;;;24.90;11.10;;;;;;;15.31;57.77;99224.78;114727;1194;111673;-70
2021/10/05 18:40:22;;;;;;;26.70;11.00;;;;;;;15.27;57.73;99219.80;113506;1194;98908;-71
2021/10/05 18:42:55;;;;;;;24.90;11.10;;;;;;;15.23;57.81;99214.02;113365;1195;107660;-70
2021/10/05 18:45:28;;;;;;;30.00;11.20;;;;;;;15.20;57.78;99209.33;113345;1195;98993;-72
2021/10/05 18:47:58;;;;;;;28.20;10.70;;;;;;;15.15;57.84;99206.70;113206;1195;96390;-70
2021/10/05 18:50:29;;;;;;;29.40;12.00;;;;;;;15.11;57.93;99201.33;113174;1194;112139;-69
2021/10/05 18:52:59;;;;;;;26.20;10.60;;;;;;;15.10;57.92;99201.10;113216;1195;96404;-69
2021/10/05 18:55:27;;;;;;;24.10;11.20;;;;;;;15.04;57.91;99203.80;113166;1195;107591;-71
2021/10/05 18:57:55;;;;;;;26.50;11.60;;;;;;;14.96;57.98;99208.95;113092;1195;99079;-71
2021/10/05 19:00:23;;;;;;;24.00;11.30;;;;;;;14.88;58.16;99211.61;113135;1195;96426;-72
2021/10/05 19:02:52;;;;;;;29.10;12.40;;;;;;;14.82;58.12;99211.77;113164;1195;112555;-71
2021/10/05 19:05:23;;;;;;;28.20;11.90;;;;;;;14.76;58.29;99204.25;113264;1195;99696;-70
2021/10/05 19:07:51;;;;;;;26.10;12.40;;;;;;;14.73;58.18;99199.87;112938;1195;107605;-71
2021/10/05 19:10:23;;;;;;;28.80;11.90;;;;;;;14.69;58.25;99197.70;113121;1195;98897;-72
2021/10/05 19:12:54;;;;;;;25.90;11.10;;;;;;;14.62;58.35;99196.35;113128;1195;99042;-70
2021/10/05 19:15:25;;;;;;;;;;;;;;;14.55;58.46;99195.73;113133;1194;113466;-72
2021/10/05 19:18:03;;;;;;;25.60;11.40;;;;;;;14.43;58.54;99199.23;113164;1196;99023;-70
2021/10/05 19:20:31;;;;;;;29.90;11.70;;;;;;;14.36;58.64;99200.15;113102;1195;107541;-68
2021/10/05 19:22:59;;;;;;;27.10;12.30;;;;;;;14.31;58.77;99198.15;113045;1195;98958;-69
2021/10/05 19:25:29;;;;;;;28.60;14.10;;;;;;;14.27;58.75;99199.37;113144;1195;98985;-70
2021/10/05 19:28:02;;;;;;;29.20;13.20;;;;;;;14.27;58.80;99202.38;113204;1195;112769;-69
2021/10/05 19:30:34;;;;;;;27.50;12.40;;;;;;;14.26;58.82;99201.59;113245;1195;98906;-69
2021/10/05 19:33:02;;;;;;;29.10;13.10;;;;;;;14.26;58.95;99206.21;113063;1195;108079;-70